Terminal Aerodrome Forecast
Issued by NWS Sterling, VA

Current Version | Previous Version | Text Only | Print | Product List | Glossary Off
Versions: 1 2 3 4 5 6 7 8 9 10 11 12 13 14 15 16 17

568
FTUS41 KLWX 271128
TAFMRB
TAF
KMRB 271128Z 2712/2812 32005KT P6SM FEW050 BKN200
     FM271800 23005KT P6SM FEW200
     FM272300 VRB03KT P6SM FEW200
     FM280900 VRB03KT P6SM BKN050=

USA.gov is the U.S. government's official web portal to all federal, state and local government web resources and services.